Time;durP1;ratioP1;P1;durP2;ratioP2;P2;SDS_P1;SDS_P2;PMS_P1;PMS_P2;Temp;Humidity;BMP_temperature;BMP_pressure;BME280_temperature;BME280_humidity;BME280_pressure;Samples;Min_cycle;Max_cycle;Signal;HPM_P1;HPM_P2
2023/01/29 00:01:37;;;;;;;4.47;3.70;;;;;;;;;;5005187;28;20812;-59
2023/01/29 00:04:03;;;;;;;5.60;3.80;;;;;;;;;;5005316;28;20693;-60
2023/01/29 00:06:28;;;;;;;4.75;3.83;;;;;;;;;;4988092;28;20473;-57
2023/01/29 00:08:53;;;;;;;5.47;3.83;;;;;;;;;;4987897;28;20041;-58
2023/01/29 00:11:24;;;;;;;4.30;3.50;;;;;;;;;;4987128;28;20046;-59
2023/01/29 00:13:49;;;;;;;;;;;;;;;;;;5005186;28;20804;-60
2023/01/29 00:16:14;;;;;;;5.33;3.60;;;;;;;;;;5006149;28;20457;-60
2023/01/29 00:18:40;;;;;;;4.43;3.70;;;;;;;;;;5005994;28;20041;-59
2023/01/29 00:21:09;;;;;;;5.32;3.67;;;;;;;;;;4971943;28;20029;-58
2023/01/29 00:23:34;;;;;;;5.25;4.05;;;;;;;;;;4987481;28;20084;-59
2023/01/29 00:25:59;;;;;;;5.03;3.63;;;;;;;;;;4987442;28;20486;-60
2023/01/29 00:28:24;;;;;;;4.37;3.70;;;;;;;;;;4985164;28;20601;-58
2023/01/29 00:30:50;;;;;;;4.53;3.47;;;;;;;;;;4999976;28;20264;-59
2023/01/29 00:33:15;;;;;;;4.83;3.60;;;;;;;;;;4987433;28;20048;-59
2023/01/29 00:35:40;;;;;;;5.07;3.93;;;;;;;;;;5004229;28;20281;-56
2023/01/29 00:38:06;;;;;;;4.82;4.00;;;;;;;;;;5002029;28;20349;-59
2023/01/29 00:44:56;;;;;;;4.25;3.35;;;;;;;;;;4971061;28;20478;-59
2023/01/29 00:46:00;;;;;;;4.85;3.75;;;;;;;;;;4990078;28;20124;-58
2023/01/29 00:48:25;;;;;;;4.63;3.90;;;;;;;;;;4969958;28;20041;-60
2023/01/29 00:50:50;;;;;;;4.97;3.90;;;;;;;;;;4971835;28;20384;-58
2023/01/29 00:53:15;;;;;;;5.33;3.93;;;;;;;;;;4986731;28;20289;-57
2023/01/29 00:55:41;;;;;;;4.60;3.80;;;;;;;;;;4987395;28;20401;-60
2023/01/29 00:58:06;;;;;;;4.88;4.00;;;;;;;;;;4970706;28;20803;-55
2023/01/29 01:00:31;;;;;;;4.67;3.67;;;;;;;;;;5005249;28;20077;-55
2023/01/29 01:03:06;;;;;;;5.37;4.10;;;;;;;;;;5004248;28;20308;-60
2023/01/29 01:05:31;;;;;;;5.38;4.25;;;;;;;;;;4988532;28;20284;-59
2023/01/29 01:07:56;;;;;;;4.90;3.97;;;;;;;;;;4986900;28;20418;-58
2023/01/29 01:10:23;;;;;;;4.97;3.80;;;;;;;;;;4986305;28;20049;-58
2023/01/29 01:12:49;;;;;;;3.97;3.33;;;;;;;;;;4985814;28;20030;-59
2023/01/29 01:15:15;;;;;;;4.65;3.58;;;;;;;;;;5004520;28;20026;-60
2023/01/29 01:17:40;;;;;;;4.75;3.70;;;;;;;;;;5004558;28;20049;-59
2023/01/29 01:20:05;;;;;;;4.30;3.30;;;;;;;;;;4987597;28;20132;-60
2023/01/29 01:22:31;;;;;;;4.95;4.00;;;;;;;;;;4987027;28;20166;-58
2023/01/29 01:24:56;;;;;;;4.63;3.63;;;;;;;;;;5004387;28;20036;-60
2023/01/29 01:27:21;;;;;;;4.88;4.00;;;;;;;;;;5003022;28;20292;-59
2023/01/29 01:29:46;;;;;;;4.83;3.63;;;;;;;;;;4987279;28;20446;-56
2023/01/29 01:32:12;;;;;;;5.07;4.23;;;;;;;;;;4987192;28;20269;-59
2023/01/29 01:34:37;;;;;;;4.93;4.03;;;;;;;;;;4983969;28;20273;-59
2023/01/29 01:37:02;;;;;;;4.17;3.63;;;;;;;;;;5000874;28;20033;-57
2023/01/29 01:39:27;;;;;;;4.55;3.97;;;;;;;;;;5000966;28;20384;-59
2023/01/29 01:41:53;;;;;;;4.63;3.42;;;;;;;;;;4999152;28;20034;-60
2023/01/29 01:44:37;;;;;;;4.90;3.75;;;;;;;;;;4980730;28;20414;-60
2023/01/29 01:47:02;;;;;;;4.72;3.70;;;;;;;;;;4983783;28;20037;-58
2023/01/29 01:49:27;;;;;;;4.20;3.30;;;;;;;;;;4967984;28;20019;-59
2023/01/29 01:51:52;;;;;;;4.95;3.85;;;;;;;;;;4983703;28;20678;-60
2023/01/29 01:54:19;;;;;;;4.33;3.33;;;;;;;;;;4984197;28;20394;-59
2023/01/29 01:56:46;;;;;;;4.90;3.90;;;;;;;;;;4985854;28;20282;-58
2023/01/29 01:59:12;;;;;;;4.55;3.35;;;;;;;;;;4982804;28;20064;-59
2023/01/29 02:01:40;;;;;;;5.07;3.92;;;;;;;;;;4983905;28;20021;-60
2023/01/29 02:09:35;;;;;;;4.72;3.60;;;;;;;;;;4998322;28;20406;-59
2023/01/29 02:12:04;;;;;;;4.05;3.13;;;;;;;;;;4981490;28;20030;-61
2023/01/29 02:14:30;;;;;;;4.43;3.75;;;;;;;;;;5000485;28;20042;-57
2023/01/29 02:16:56;;;;;;;4.75;3.83;;;;;;;;;;5000252;28;20015;-59
2023/01/29 02:19:21;;;;;;;4.80;3.88;;;;;;;;;;4983220;28;20097;-59
2023/01/29 02:21:51;;;;;;;4.93;3.93;;;;;;;;;;4985438;28;20042;-56
2023/01/29 02:24:29;;;;;;;4.65;3.60;;;;;;;;;;4967181;28;20486;-59
2023/01/29 02:26:54;;;;;;;4.82;3.97;;;;;;;;;;4999901;28;20042;-58
2023/01/29 02:29:22;;;;;;;4.20;3.50;;;;;;;;;;4984131;28;20504;-55
2023/01/29 02:31:52;;;;;;;5.10;3.78;;;;;;;;;;4999693;28;20277;-58
2023/01/29 02:37:26;;;;;;;4.70;3.97;;;;;;;;;;5007520;28;20065;-59
2023/01/29 02:39:53;;;;;;;4.85;3.80;;;;;;;;;;4974313;28;20515;-59
2023/01/29 02:42:34;;;;;;;5.32;3.85;;;;;;;;;;4966569;28;20410;-58
2023/01/29 02:45:10;;;;;;;5.00;3.97;;;;;;;;;;5008268;28;20041;-59
2023/01/29 02:47:38;;;;;;;4.32;3.53;;;;;;;;;;4990052;28;20034;-58
2023/01/29 02:50:10;;;;;;;4.93;3.92;;;;;;;;;;5006282;28;20076;-57
2023/01/29 02:52:38;;;;;;;4.65;3.55;;;;;;;;;;4999610;28;20045;-58
2023/01/29 02:55:09;;;;;;;4.68;3.63;;;;;;;;;;5007782;28;20440;-58
2023/01/29 02:57:35;;;;;;;4.80;3.67;;;;;;;;;;5008179;28;20034;-60
2023/01/29 03:00:13;;;;;;;4.90;3.38;;;;;;;;;;4972016;28;20042;-58
2023/01/29 03:02:39;;;;;;;4.93;3.80;;;;;;;;;;5008005;28;20045;-60
2023/01/29 03:05:06;;;;;;;4.27;3.50;;;;;;;;;;5007535;28;20482;-59
2023/01/29 03:07:41;;;;;;;4.85;3.55;;;;;;;;;;4988985;28;20277;-59
2023/01/29 03:10:08;;;;;;;4.95;3.83;;;;;;;;;;5004200;28;20091;-57
2023/01/29 03:12:33;;;;;;;4.35;3.50;;;;;;;;;;4986148;28;20185;-58
2023/01/29 03:15:11;;;;;;;5.67;4.03;;;;;;;;;;4973416;28;20634;-58
2023/01/29 03:17:44;;;;;;;3.97;3.40;;;;;;;;;;4987452;28;20334;-58
2023/01/29 03:20:12;;;;;;;4.68;3.75;;;;;;;;;;4989961;28;20071;-58
2023/01/29 03:22:37;;;;;;;4.38;3.42;;;;;;;;;;4989766;28;20018;-60
2023/01/29 03:33:17;;;;;;;4.15;3.15;;;;;;;;;;5006907;28;20041;-59
2023/01/29 03:35:47;;;;;;;4.72;3.63;;;;;;;;;;4975288;28;20089;-58
2023/01/29 03:38:12;;;;;;;4.75;3.60;;;;;;;;;;4970368;28;20046;-61
2023/01/29 03:40:51;;;;;;;4.57;3.17;;;;;;;;;;4969968;28;20078;-59
2023/01/29 03:43:19;;;;;;;4.70;3.60;;;;;;;;;;4970152;28;20293;-59
2023/01/29 03:45:45;;;;;;;4.00;3.20;;;;;;;;;;4953967;28;20050;-56
2023/01/29 03:48:12;;;;;;;4.25;3.65;;;;;;;;;;4986908;28;20357;-59
2023/01/29 03:50:43;;;;;;;3.80;3.08;;;;;;;;;;4953459;28;20041;-60
2023/01/29 03:53:14;;;;;;;5.15;3.60;;;;;;;;;;4982540;28;20514;-57
2023/01/29 03:55:42;;;;;;;5.05;3.60;;;;;;;;;;4969792;28;20457;-61
2023/01/29 03:58:24;;;;;;;4.53;3.67;;;;;;;;;;4973496;28;20754;-60
2023/01/29 04:00:54;;;;;;;4.40;3.60;;;;;;;;;;4961924;28;20563;-59
2023/01/29 04:03:26;;;;;;;4.75;3.92;;;;;;;;;;4956457;28;20105;-58
2023/01/29 04:06:04;;;;;;;4.97;3.60;;;;;;;;;;4973216;28;20061;-59
2023/01/29 04:08:30;;;;;;;4.28;3.20;;;;;;;;;;4966087;28;20021;-60
2023/01/29 04:10:55;;;;;;;4.07;3.42;;;;;;;;;;4934482;28;20117;-57
2023/01/29 04:13:21;;;;;;;4.50;3.45;;;;;;;;;;4981240;28;20129;-60
2023/01/29 04:15:48;;;;;;;3.90;3.17;;;;;;;;;;4967989;28;20515;-59
2023/01/29 04:18:13;;;;;;;4.57;3.65;;;;;;;;;;4961201;28;20222;-59
2023/01/29 04:20:38;;;;;;;4.45;3.70;;;;;;;;;;4966791;28;20133;-56
2023/01/29 04:23:04;;;;;;;3.70;3.03;;;;;;;;;;4965698;28;20414;-58
2023/01/29 04:25:31;;;;;;;4.50;3.40;;;;;;;;;;4966075;28;20392;-57
2023/01/29 04:28:08;;;;;;;4.28;3.45;;;;;;;;;;4993703;28;20034;-60
2023/01/29 04:30:42;;;;;;;4.18;3.20;;;;;;;;;;4959922;28;20031;-59
2023/01/29 04:33:20;;;;;;;4.57;3.40;;;;;;;;;;4964824;28;20032;-60
2023/01/29 04:35:52;;;;;;;3.80;3.20;;;;;;;;;;4998928;28;20073;-60
2023/01/29 04:38:40;;;;;;;4.07;3.30;;;;;;;;;;5006443;28;20025;-59
2023/01/29 04:41:13;;;;;;;3.85;3.05;;;;;;;;;;4978966;28;20053;-60
2023/01/29 04:43:40;;;;;;;3.97;3.13;;;;;;;;;;4964944;28;20034;-59
2023/01/29 04:46:09;;;;;;;4.53;3.28;;;;;;;;;;5004476;28;20058;-62
2023/01/29 04:48:37;;;;;;;4.15;3.40;;;;;;;;;;5004309;28;20045;-57
2023/01/29 04:51:12;;;;;;;3.75;3.20;;;;;;;;;;5005752;28;20053;-58
2023/01/29 04:53:56;;;;;;;3.38;2.78;;;;;;;;;;4997007;28;20033;-61
2023/01/29 04:56:26;;;;;;;3.97;3.28;;;;;;;;;;4992850;28;20033;-61
2023/01/29 04:58:54;;;;;;;3.92;3.05;;;;;;;;;;4987775;28;20028;-59
2023/01/29 05:01:19;;;;;;;3.50;2.97;;;;;;;;;;4970257;28;20042;-59
2023/01/29 05:03:45;;;;;;;4.07;3.20;;;;;;;;;;4987487;28;20110;-60
2023/01/29 05:06:11;;;;;;;4.03;2.90;;;;;;;;;;4971716;28;20318;-56
2023/01/29 05:08:36;;;;;;;3.97;3.00;;;;;;;;;;4987585;28;20025;-58
2023/01/29 05:11:01;;;;;;;4.20;3.20;;;;;;;;;;4969935;28;20379;-60
2023/01/29 05:13:27;;;;;;;3.60;3.13;;;;;;;;;;4986125;28;20033;-57
2023/01/29 05:15:56;;;;;;;3.60;2.83;;;;;;;;;;4998836;28;20111;-61
2023/01/29 05:18:21;;;;;;;3.30;2.70;;;;;;;;;;5007097;28;20042;-60
2023/01/29 05:20:46;;;;;;;4.20;2.97;;;;;;;;;;4971298;28;20486;-59
2023/01/29 05:23:18;;;;;;;3.27;2.80;;;;;;;;;;4987283;28;20413;-60
2023/01/29 05:25:44;;;;;;;4.15;3.05;;;;;;;;;;4987157;28;20269;-59
2023/01/29 05:28:16;;;;;;;4.05;3.25;;;;;;;;;;5004528;28;20025;-60
2023/01/29 05:30:41;;;;;;;3.63;2.92;;;;;;;;;;4987332;28;20017;-61
2023/01/29 05:33:17;;;;;;;3.83;2.90;;;;;;;;;;5003069;28;20093;-56
2023/01/29 05:35:42;;;;;;;3.70;2.92;;;;;;;;;;5003268;28;20065;-59
2023/01/29 05:38:07;;;;;;;3.75;3.00;;;;;;;;;;5003847;28;20061;-59
2023/01/29 05:40:33;;;;;;;5.53;3.08;;;;;;;;;;4986789;28;20057;-59
2023/01/29 05:42:58;;;;;;;4.40;2.80;;;;;;;;;;4986639;28;20029;-59
2023/01/29 05:45:23;;;;;;;3.43;2.70;;;;;;;;;;4986617;28;20406;-61
2023/01/29 05:47:48;;;;;;;4.00;2.63;;;;;;;;;;4987141;28;20030;-60
2023/01/29 05:50:14;;;;;;;3.67;2.73;;;;;;;;;;4986480;28;20253;-60
2023/01/29 05:52:39;;;;;;;3.25;2.63;;;;;;;;;;4986421;28;20261;-60
2023/01/29 05:55:05;;;;;;;2.88;2.45;;;;;;;;;;4987572;28;20405;-61
2023/01/29 05:57:30;;;;;;;6.93;2.50;;;;;;;;;;5004992;28;20399;-58
2023/01/29 05:59:55;;;;;;;3.53;2.77;;;;;;;;;;4970637;28;20410;-60
2023/01/29 06:02:21;;;;;;;2.93;2.50;;;;;;;;;;4986757;28;20413;-59
2023/01/29 06:04:46;;;;;;;2.92;2.60;;;;;;;;;;4971071;28;20288;-58
2023/01/29 06:07:11;;;;;;;3.55;2.58;;;;;;;;;;5004432;28;20334;-58
2023/01/29 06:09:36;;;;;;;2.95;2.40;;;;;;;;;;5009174;28;20085;-59
2023/01/29 06:12:02;;;;;;;3.35;2.50;;;;;;;;;;5006415;28;20042;-57
2023/01/29 06:14:27;;;;;;;3.20;2.28;;;;;;;;;;5008823;28;20485;-59
2023/01/29 06:16:52;;;;;;;2.88;2.08;;;;;;;;;;4990438;28;20029;-59
2023/01/29 06:19:19;;;;;;;3.53;2.50;;;;;;;;;;5007753;28;20460;-54
2023/01/29 06:21:44;;;;;;;3.47;2.63;;;;;;;;;;5006075;28;20045;-58
2023/01/29 06:24:10;;;;;;;3.07;2.30;;;;;;;;;;4990913;28;20117;-60
2023/01/29 06:26:35;;;;;;;3.00;2.30;;;;;;;;;;4989747;28;20823;-56
2023/01/29 06:29:00;;;;;;;2.97;2.50;;;;;;;;;;5006487;28;20109;-59
2023/01/29 06:31:25;;;;;;;3.20;2.47;;;;;;;;;;4989918;28;20517;-59
2023/01/29 06:33:51;;;;;;;3.35;2.50;;;;;;;;;;5007479;28;20364;-60
2023/01/29 06:36:16;;;;;;;2.73;2.30;;;;;;;;;;4990532;28;20487;-62
2023/01/29 06:38:41;;;;;;;3.28;2.50;;;;;;;;;;5002220;28;20305;-60
2023/01/29 06:41:07;;;;;;;3.10;2.40;;;;;;;;;;4990779;28;20513;-61
2023/01/29 06:43:32;;;;;;;3.80;2.30;;;;;;;;;;4998167;28;20030;-61
2023/01/29 06:45:57;;;;;;;3.40;2.43;;;;;;;;;;4971628;28;20022;-60
2023/01/29 06:48:23;;;;;;;2.90;2.20;;;;;;;;;;4977109;28;20048;-56
2023/01/29 06:50:48;;;;;;;2.90;2.30;;;;;;;;;;4984303;28;20030;-59
2023/01/29 06:53:13;;;;;;;2.85;2.28;;;;;;;;;;4985840;28;20041;-59
2023/01/29 06:55:39;;;;;;;3.00;2.15;;;;;;;;;;4993317;28;20112;-58
2023/01/29 06:58:10;;;;;;;4.10;2.03;;;;;;;;;;4983839;28;20112;-59
2023/01/29 07:00:35;;;;;;;3.63;2.45;;;;;;;;;;4971502;28;20621;-58
2023/01/29 07:03:00;;;;;;;2.83;2.00;;;;;;;;;;4993920;28;20137;-61
2023/01/29 07:05:26;;;;;;;3.00;2.22;;;;;;;;;;5007102;28;20018;-59
2023/01/29 07:07:51;;;;;;;3.75;2.38;;;;;;;;;;4972782;28;20022;-59
2023/01/29 07:10:16;;;;;;;2.90;2.10;;;;;;;;;;4989777;28;20044;-55
2023/01/29 07:12:41;;;;;;;2.97;2.20;;;;;;;;;;5005963;28;20312;-61
2023/01/29 07:15:07;;;;;;;2.57;2.10;;;;;;;;;;4989398;28;20276;-60
2023/01/29 07:17:32;;;;;;;3.10;2.30;;;;;;;;;;4989419;28;20276;-59
2023/01/29 07:19:57;;;;;;;2.57;2.10;;;;;;;;;;4989326;28;20454;-63
2023/01/29 07:22:23;;;;;;;2.88;2.05;;;;;;;;;;4972761;28;20347;-57
2023/01/29 07:24:48;;;;;;;2.90;2.10;;;;;;;;;;4988820;28;20117;-59
2023/01/29 07:27:13;;;;;;;2.85;2.10;;;;;;;;;;4988412;28;20712;-59
2023/01/29 07:29:39;;;;;;;2.70;2.03;;;;;;;;;;4972121;28;20472;-60
2023/01/29 07:32:04;;;;;;;2.40;2.00;;;;;;;;;;4990086;28;20269;-60
2023/01/29 07:34:29;;;;;;;2.80;2.20;;;;;;;;;;4977144;28;20842;-58
2023/01/29 07:36:55;;;;;;;2.65;2.15;;;;;;;;;;5007274;28;20334;-54
2023/01/29 07:39:21;;;;;;;2.75;2.10;;;;;;;;;;5007512;28;20536;-58
2023/01/29 07:41:46;;;;;;;2.67;1.95;;;;;;;;;;4998676;28;20096;-59
2023/01/29 07:44:11;;;;;;;2.77;2.20;;;;;;;;;;4994557;28;20074;-60
2023/01/29 07:46:36;;;;;;;2.40;2.00;;;;;;;;;;4989900;28;20034;-59
2023/01/29 07:49:02;;;;;;;2.92;2.10;;;;;;;;;;4989743;28;20058;-60
2023/01/29 07:51:27;;;;;;;2.50;2.00;;;;;;;;;;4982053;28;20031;-59
2023/01/29 07:53:52;;;;;;;2.83;2.30;;;;;;;;;;4977241;28;20269;-58
2023/01/29 07:56:17;;;;;;;2.30;1.90;;;;;;;;;;4981826;28;20278;-59
2023/01/29 07:58:43;;;;;;;3.00;2.20;;;;;;;;;;4977200;28;20784;-57
2023/01/29 08:01:08;;;;;;;2.30;1.90;;;;;;;;;;4980871;28;20636;-58
2023/01/29 08:03:33;;;;;;;2.57;1.77;;;;;;;;;;5000925;28;20324;-59
2023/01/29 08:05:58;;;;;;;2.70;2.00;;;;;;;;;;4966181;28;20269;-58
2023/01/29 08:08:24;;;;;;;5.80;2.00;;;;;;;;;;4990877;28;20053;-58
2023/01/29 08:10:49;;;;;;;2.40;1.98;;;;;;;;;;4995219;28;21205;-60
2023/01/29 08:13:15;;;;;;;3.07;2.30;;;;;;;;;;4980571;28;20452;-60
2023/01/29 08:15:46;;;;;;;2.83;1.93;;;;;;;;;;4977295;28;20526;-56
2023/01/29 08:18:12;;;;;;;3.03;2.13;;;;;;;;;;5006113;28;20699;-62
2023/01/29 08:20:37;;;;;;;3.03;2.15;;;;;;;;;;4989507;28;20156;-55
2023/01/29 08:23:03;;;;;;;2.73;2.10;;;;;;;;;;5006671;28;20045;-58
2023/01/29 08:25:29;;;;;;;2.88;2.10;;;;;;;;;;5005510;28;20296;-57
2023/01/29 08:27:57;;;;;;;3.70;2.28;;;;;;;;;;4989129;28;20222;-60
2023/01/29 08:30:23;;;;;;;3.47;2.03;;;;;;;;;;5003911;28;20042;-61
2023/01/29 08:32:48;;;;;;;3.03;2.15;;;;;;;;;;5004200;28;20034;-60
2023/01/29 08:35:14;;;;;;;2.57;2.00;;;;;;;;;;4988458;28;20038;-59
2023/01/29 08:37:39;;;;;;;3.20;2.20;;;;;;;;;;5005253;28;20026;-61
2023/01/29 08:40:04;;;;;;;2.83;1.87;;;;;;;;;;5003749;28;20403;-60
2023/01/29 08:42:30;;;;;;;3.05;1.90;;;;;;;;;;4970561;28;20114;-59
2023/01/29 08:44:55;;;;;;;2.73;2.10;;;;;;;;;;5005513;28;20371;-59
2023/01/29 08:47:20;;;;;;;3.00;2.30;;;;;;;;;;5020673;28;20418;-59
2023/01/29 08:49:46;;;;;;;2.67;2.10;;;;;;;;;;5004546;28;20308;-60
2023/01/29 08:52:11;;;;;;;3.00;2.30;;;;;;;;;;5005073;28;20096;-60
2023/01/29 08:54:36;;;;;;;2.97;2.17;;;;;;;;;;5005824;28;20057;-60
2023/01/29 08:57:02;;;;;;;3.00;2.37;;;;;;;;;;5005131;28;20339;-60
2023/01/29 08:59:27;;;;;;;2.90;2.38;;;;;;;;;;4986743;28;20299;-61
2023/01/29 09:01:52;;;;;;;3.90;2.83;;;;;;;;;;5003321;28;20040;-59
2023/01/29 09:04:17;;;;;;;3.57;2.17;;;;;;;;;;4987461;28;20280;-60
2023/01/29 09:06:43;;;;;;;3.37;2.40;;;;;;;;;;5004492;28;20850;-60
2023/01/29 09:09:08;;;;;;;3.10;2.37;;;;;;;;;;4987017;28;20453;-60
2023/01/29 09:11:33;;;;;;;2.88;2.20;;;;;;;;;;4971550;28;20289;-60
2023/01/29 09:13:58;;;;;;;3.45;2.53;;;;;;;;;;4986295;28;20427;-60
2023/01/29 09:16:24;;;;;;;3.20;2.20;;;;;;;;;;4971696;28;20060;-60
2023/01/29 09:18:49;;;;;;;3.63;2.17;;;;;;;;;;4971642;28;20875;-58
2023/01/29 09:21:14;;;;;;;3.03;2.03;;;;;;;;;;5005619;28;20498;-56
2023/01/29 09:23:39;;;;;;;2.88;2.20;;;;;;;;;;5005526;28;20597;-59
2023/01/29 09:26:05;;;;;;;2.97;1.80;;;;;;;;;;5005380;28;20177;-59
2023/01/29 09:28:31;;;;;;;3.75;2.35;;;;;;;;;;4987293;28;20815;-60
2023/01/29 09:30:59;;;;;;;3.00;2.00;;;;;;;;;;5002078;28;21294;-60
2023/01/29 09:33:24;;;;;;;2.92;2.20;;;;;;;;;;4987257;28;20655;-61
2023/01/29 09:35:50;;;;;;;3.00;2.40;;;;;;;;;;4987201;28;20068;-58
2023/01/29 09:38:15;;;;;;;2.60;2.03;;;;;;;;;;4971430;28;20038;-59
2023/01/29 09:40:50;;;;;;;3.20;2.37;;;;;;;;;;4994062;28;20046;-59
2023/01/29 09:43:17;;;;;;;3.22;2.33;;;;;;;;;;4972908;28;20797;-57
2023/01/29 09:45:48;;;;;;;3.97;2.83;;;;;;;;;;4998117;28;20168;-60
2023/01/29 09:48:13;;;;;;;3.30;2.30;;;;;;;;;;4962785;28;20042;-55
2023/01/29 09:50:39;;;;;;;3.33;2.53;;;;;;;;;;4989982;28;20035;-58
2023/01/29 09:53:17;;;;;;;2.45;2.08;;;;;;;;;;4964742;28;20289;-56
2023/01/29 09:55:44;;;;;;;3.65;2.50;;;;;;;;;;4989998;28;20043;-61
2023/01/29 09:58:15;;;;;;;3.55;2.25;;;;;;;;;;4981863;28;20422;-61
2023/01/29 10:00:49;;;;;;;4.07;2.40;;;;;;;;;;5007351;28;20058;-58
2023/01/29 10:03:31;;;;;;;4.85;2.60;;;;;;;;;;4983409;28;20753;-58
2023/01/29 10:06:14;;;;;;;4.03;2.78;;;;;;;;;;4967366;28;20046;-58
2023/01/29 10:08:45;;;;;;;3.95;2.50;;;;;;;;;;4984029;28;20076;-59
2023/01/29 10:11:10;;;;;;;4.07;2.80;;;;;;;;;;5005216;28;20033;-59
2023/01/29 10:13:55;;;;;;;3.43;2.40;;;;;;;;;;5003696;28;20403;-61
2023/01/29 10:16:30;;;;;;;4.00;2.60;;;;;;;;;;4969861;28;20049;-60
2023/01/29 10:19:14;;;;;;;3.33;2.40;;;;;;;;;;5004325;28;20049;-59
2023/01/29 10:21:39;;;;;;;3.50;2.50;;;;;;;;;;5004234;28;20041;-58
2023/01/29 10:24:24;;;;;;;4.23;2.70;;;;;;;;;;4986950;28;20041;-56
2023/01/29 10:26:49;;;;;;;4.10;2.63;;;;;;;;;;5019385;28;20481;-58
2023/01/29 10:29:15;;;;;;;3.72;2.47;;;;;;;;;;5002342;28;20526;-57
2023/01/29 10:31:40;;;;;;;5.25;2.75;;;;;;;;;;4987588;28;20041;-56
2023/01/29 10:34:22;;;;;;;4.53;2.80;;;;;;;;;;4999060;28;20097;-57
2023/01/29 10:36:47;;;;;;;4.95;2.70;;;;;;;;;;4966458;28;20312;-56
2023/01/29 10:39:19;;;;;;;4.63;2.67;;;;;;;;;;4967328;28;20030;-59
2023/01/29 10:42:04;;;;;;;7.82;2.70;;;;;;;;;;4984650;28;20042;-57
2023/01/29 10:44:35;;;;;;;5.10;2.72;;;;;;;;;;4983306;28;20042;-57
2023/01/29 10:47:19;;;;;;;3.70;2.60;;;;;;;;;;5002628;28;20994;-61
2023/01/29 10:50:00;;;;;;;4.35;2.60;;;;;;;;;;5001732;28;20045;-55
2023/01/29 10:52:28;;;;;;;4.20;2.63;;;;;;;;;;5004054;28;20073;-56
2023/01/29 10:54:53;;;;;;;3.58;2.50;;;;;;;;;;5005840;28;20148;-60
2023/01/29 10:57:55;;;;;;;3.63;2.33;;;;;;;;;;5008366;28;20232;-57
2023/01/29 11:00:24;;;;;;;4.00;2.60;;;;;;;;;;4975669;28;20357;-56
2023/01/29 11:02:50;;;;;;;4.28;3.00;;;;;;;;;;4978643;28;20030;-56
2023/01/29 11:05:33;;;;;;;4.07;2.60;;;;;;;;;;4990547;28;20136;-56
2023/01/29 11:08:06;;;;;;;4.57;2.75;;;;;;;;;;5008208;28;20060;-56
2023/01/29 11:10:32;;;;;;;4.38;3.08;;;;;;;;;;4985033;28;20042;-57
2023/01/29 11:12:57;;;;;;;5.13;2.72;;;;;;;;;;4989177;28;20041;-57
2023/01/29 11:15:23;;;;;;;4.83;2.70;;;;;;;;;;4973123;28;20034;-58
2023/01/29 11:18:05;;;;;;;3.80;2.80;;;;;;;;;;4989404;28;20655;-57
2023/01/29 11:20:31;;;;;;;3.58;2.30;;;;;;;;;;5002869;28;20127;-60
2023/01/29 11:22:56;;;;;;;4.78;3.00;;;;;;;;;;4989769;28;20151;-60
2023/01/29 11:25:22;;;;;;;5.32;2.67;;;;;;;;;;4990281;28;20113;-60
2023/01/29 11:27:47;;;;;;;3.90;2.50;;;;;;;;;;4991866;28;20471;-60
2023/01/29 11:30:19;;;;;;;3.33;2.60;;;;;;;;;;5006170;28;20441;-60
2023/01/29 11:32:44;;;;;;;4.53;2.92;;;;;;;;;;5007256;28;20376;-54
2023/01/29 11:35:12;;;;;;;4.93;2.53;;;;;;;;;;4986378;28;20157;-58
2023/01/29 11:37:39;;;;;;;3.28;2.65;;;;;;;;;;4969150;28;20027;-60
2023/01/29 11:40:26;;;;;;;4.30;2.65;;;;;;;;;;4968010;28;20121;-56
2023/01/29 11:42:52;;;;;;;5.55;3.15;;;;;;;;;;4974821;28;20035;-56
2023/01/29 11:45:23;;;;;;;5.45;3.10;;;;;;;;;;5003083;28;20030;-58
2023/01/29 11:47:49;;;;;;;5.68;3.10;;;;;;;;;;4987992;28;20053;-56
2023/01/29 11:50:22;;;;;;;4.78;2.90;;;;;;;;;;4985410;28;20494;-56
2023/01/29 11:52:47;;;;;;;5.43;3.20;;;;;;;;;;4986860;28;20054;-56
2023/01/29 11:55:20;;;;;;;4.10;2.93;;;;;;;;;;4985845;28;20402;-61
2023/01/29 11:57:45;;;;;;;5.22;2.85;;;;;;;;;;4991074;28;20312;-55
2023/01/29 12:00:21;;;;;;;3.97;2.58;;;;;;;;;;4985239;28;20550;-57
2023/01/29 12:02:47;;;;;;;4.22;2.95;;;;;;;;;;4983271;28;20046;-57
2023/01/29 12:05:14;;;;;;;3.35;2.60;;;;;;;;;;4984719;28;20062;-59
2023/01/29 12:07:40;;;;;;;4.72;3.10;;;;;;;;;;5002347;28;20227;-56
2023/01/29 12:10:05;;;;;;;4.45;3.03;;;;;;;;;;4986761;28;20054;-56
2023/01/29 12:12:40;;;;;;;4.00;3.17;;;;;;;;;;4986053;28;20130;-57
2023/01/29 12:15:08;;;;;;;4.28;3.10;;;;;;;;;;4986662;28;20042;-54
2023/01/29 12:17:35;;;;;;;3.50;2.78;;;;;;;;;;5001772;28;20117;-58
2023/01/29 12:20:02;;;;;;;14.00;4.00;;;;;;;;;;4984696;28;20109;-56
2023/01/29 12:22:40;;;;;;;7.28;3.40;;;;;;;;;;4985695;28;20035;-57
2023/01/29 12:25:05;;;;;;;6.00;2.95;;;;;;;;;;4986608;28;20847;-56
2023/01/29 12:27:33;;;;;;;5.23;3.20;;;;;;;;;;4985501;28;20054;-57
2023/01/29 12:30:17;;;;;;;4.00;3.03;;;;;;;;;;4984524;28;20030;-60
2023/01/29 12:32:54;;;;;;;6.68;3.30;;;;;;;;;;5000696;28;20081;-58
2023/01/29 12:35:32;;;;;;;5.10;3.10;;;;;;;;;;4987957;28;20054;-57
2023/01/29 12:38:06;;;;;;;5.40;3.75;;;;;;;;;;4985350;28;20072;-56
2023/01/29 12:40:33;;;;;;;5.53;3.28;;;;;;;;;;4987907;28;20050;-59
2023/01/29 12:43:00;;;;;;;6.45;3.70;;;;;;;;;;4986169;28;20030;-53
2023/01/29 12:45:25;;;;;;;5.35;3.60;;;;;;;;;;4984405;28;20477;-57
2023/01/29 12:47:52;;;;;;;5.27;3.63;;;;;;;;;;4987088;28;20018;-59
2023/01/29 12:50:27;;;;;;;6.78;3.60;;;;;;;;;;4985146;28;20702;-57
2023/01/29 12:52:54;;;;;;;6.13;3.65;;;;;;;;;;4986313;28;20116;-56
2023/01/29 12:55:25;;;;;;;5.30;3.60;;;;;;;;;;5005924;28;20108;-56
2023/01/29 12:57:57;;;;;;;4.55;3.30;;;;;;;;;;5005205;28;20048;-58
2023/01/29 13:00:26;;;;;;;4.72;3.10;;;;;;;;;;4999908;28;20161;-60
2023/01/29 13:02:54;;;;;;;5.68;3.78;;;;;;;;;;4985659;28;20495;-58
2023/01/29 13:05:24;;;;;;;6.20;3.88;;;;;;;;;;5003704;28;20116;-57
2023/01/29 13:08:10;;;;;;;6.25;3.83;;;;;;;;;;5004581;28;20034;-56
2023/01/29 13:10:36;;;;;;;5.35;3.80;;;;;;;;;;4972379;28;20081;-56
2023/01/29 13:13:06;;;;;;;5.38;3.72;;;;;;;;;;4971208;28;20053;-57
2023/01/29 13:15:31;;;;;;;5.47;3.83;;;;;;;;;;4968744;28;20096;-57
2023/01/29 13:17:58;;;;;;;5.40;3.65;;;;;;;;;;4998805;28;20529;-59
2023/01/29 13:20:24;;;;;;;4.72;3.75;;;;;;;;;;4970741;28;20056;-58
2023/01/29 13:22:50;;;;;;;5.57;3.78;;;;;;;;;;4970903;28;20033;-58
2023/01/29 13:25:16;;;;;;;6.00;3.72;;;;;;;;;;4971546;28;20037;-56
2023/01/29 13:27:41;;;;;;;6.40;4.18;;;;;;;;;;5005062;28;20498;-60
2023/01/29 13:30:07;;;;;;;9.83;6.27;;;;;;;;;;4969691;28;20557;-57
2023/01/29 13:32:33;;;;;;;19.95;12.77;;;;;;;;;;5004071;28;20287;-56
2023/01/29 13:35:00;;;;;;;16.70;12.13;;;;;;;;;;4989471;28;20038;-58
2023/01/29 13:37:32;;;;;;;16.90;11.98;;;;;;;;;;4985516;28;20038;-55
2023/01/29 13:39:58;;;;;;;14.73;11.65;;;;;;;;;;4999470;28;20050;-57
2023/01/29 13:42:35;;;;;;;14.23;10.70;;;;;;;;;;4983128;28;20566;-55
2023/01/29 13:45:01;;;;;;;13.68;10.35;;;;;;;;;;4972916;28;20039;-57
2023/01/29 13:47:27;;;;;;;14.10;9.82;;;;;;;;;;5000517;28;20040;-57
2023/01/29 13:49:56;;;;;;;14.60;9.63;;;;;;;;;;4984040;28;20426;-58
2023/01/29 13:52:30;;;;;;;11.63;8.95;;;;;;;;;;4983783;28;20030;-57
2023/01/29 13:54:56;;;;;;;12.45;8.80;;;;;;;;;;4983986;28;20167;-57
2023/01/29 13:57:32;;;;;;;12.68;9.23;;;;;;;;;;4985278;28;20042;-59
2023/01/29 13:59:58;;;;;;;10.73;8.68;;;;;;;;;;4983417;28;20054;-57
2023/01/29 14:02:24;;;;;;;10.85;8.57;;;;;;;;;;5000451;28;20042;-59
2023/01/29 14:04:49;;;;;;;11.73;8.63;;;;;;;;;;4998342;28;20477;-58
2023/01/29 14:07:33;;;;;;;10.98;8.07;;;;;;;;;;4982758;28;20038;-58
2023/01/29 14:10:08;;;;;;;11.00;8.10;;;;;;;;;;4984359;28;20046;-58
2023/01/29 14:12:36;;;;;;;10.98;8.23;;;;;;;;;;4976412;28;20088;-57
2023/01/29 14:15:03;;;;;;;11.02;8.23;;;;;;;;;;4984175;28;20026;-58
2023/01/29 14:17:29;;;;;;;11.10;8.32;;;;;;;;;;4983877;28;20026;-57
2023/01/29 14:19:57;;;;;;;10.98;7.93;;;;;;;;;;4999892;28;20037;-58
2023/01/29 14:22:23;;;;;;;11.07;7.50;;;;;;;;;;4982417;28;20022;-60
2023/01/29 14:24:48;;;;;;;10.82;7.80;;;;;;;;;;4983479;28;20026;-59
2023/01/29 14:27:20;;;;;;;11.15;7.70;;;;;;;;;;4971442;28;20039;-59
2023/01/29 14:29:46;;;;;;;10.85;7.53;;;;;;;;;;4986378;28;20506;-57
2023/01/29 14:32:18;;;;;;;11.43;7.50;;;;;;;;;;5004517;28;20041;-59
2023/01/29 14:34:44;;;;;;;11.02;7.57;;;;;;;;;;5002870;28;20166;-56
2023/01/29 14:37:16;;;;;;;11.70;6.78;;;;;;;;;;4970311;28;20137;-55
2023/01/29 14:39:42;;;;;;;9.38;6.85;;;;;;;;;;4987587;28;20073;-56
2023/01/29 14:42:33;;;;;;;10.25;7.45;;;;;;;;;;4970598;28;20117;-56
2023/01/29 14:44:59;;;;;;;10.23;7.28;;;;;;;;;;4966718;28;20031;-58
2023/01/29 14:47:31;;;;;;;12.07;7.55;;;;;;;;;;4986906;28;20509;-58
2023/01/29 14:49:57;;;;;;;9.88;6.97;;;;;;;;;;4987303;28;20050;-58
2023/01/29 14:52:27;;;;;;;9.40;6.80;;;;;;;;;;4954490;28;20383;-57
2023/01/29 14:54:52;;;;;;;9.20;7.10;;;;;;;;;;4953739;28;20051;-56
2023/01/29 14:57:17;;;;;;;9.50;6.45;;;;;;;;;;4970593;28;20034;-57
2023/01/29 14:59:42;;;;;;;9.73;7.37;;;;;;;;;;4990687;28;20519;-57
2023/01/29 15:02:31;;;;;;;9.37;6.67;;;;;;;;;;4981706;28;20292;-56
2023/01/29 15:04:57;;;;;;;9.05;6.80;;;;;;;;;;4978216;28;20101;-56
2023/01/29 15:07:26;;;;;;;9.25;6.72;;;;;;;;;;4965326;28;20038;-58
2023/01/29 15:09:59;;;;;;;9.15;7.00;;;;;;;;;;4934478;28;20083;-57